Terminal Aerodrome Forecast
Issued by NWS

Home | Current Version | Previous Version | Text Only | Print | Product List | Glossary On
Versions: 1 2 3 4 5 6 7 8 9 10 11 12 13 14 15 16 17 18 19 20 21 22 23 24 25 26 27 28 29 30 31 32 33 34 35 36 37 38 39 40 41 42 43 44
000
FTUS43 KGRB 230500
TAFRHI
TAF
KRHI 230536Z 2306/2406 VRB03KT 2SM BR VV003
      TEMPO 2306/2308 1/4SM FG VV001
     FM230800 VRB03KT 3/4SM BR OVC002
      TEMPO 2312/2314 1/4SM FG VV001
     FM231400 10006KT 4SM BR OVC004
     FM231600 10008KT 6SM BR OVC006
     FM231900 12005KT P6SM BKN018
     FM240100 11004KT 5SM BR BKN005=

USA.gov is the U.S. government's official web portal to all federal, state and local government web resources and services.